Pagina principale
METAR-TAF:

METAR-TAF

Aeroporti :

Crystal River, Florida, Stati Uniti

latitudine: 28-52-02N, longitudine: 082-34-17W, altezza: 3 m

Osservazione

Il bollettino è stato emesso 9 minuti fa, alle 12:55 UTC
Vento calmo
Temperature 8°C
Umidità 100%
Pressione 1017 hPa
Visibilità: 16.1 km
Cielo sereno

METAR: KCGC 281255Z AUTO 00000KT 10SM CLR 08/08 A3002 RMK AO2

Ora: 08:04 (13:04 UTC)


TAF: mancante

Osservazioni e previsioni meteorologiche di più di 4000 aeroporti (messaggi METAR e TAF).

Le stazioni disponibili sono rappresentate dai dischi gialli e rossi sulla carta.

Puntare il mouse per vedere il nome della stazione.

Clicca sopra per visualizzare le osservazioni e previsioni meteorologiche.

Per cambiare la mappa : fare clic sui pulsanti verdi con una croce nera per ingrandire, il pulsante verde con un trattino per diminuire, o sulla freccia verde per le mappe adiacenti.


METAR-TAF: